Carimona, Minnesota
Current Conditions -  °F | °C
As of 9:15 PM on Wednesday 22 Oct 2014 (Local Time) from KFKA Reporting Station
Light Rain Light Rain  
Wind Chill: 44°   Ceiling: 3300
Heat Index: 49°   Visibility: 7mi
Dew Point: 41°   Wind: 10mph
Humidity: 74%   Direction: 150°SSE
Pressure: 30.14"   Gusts: NA
Location:  43.6343°N, 92.1426°W
Report Text: KFKA 230215Z AUTO 15009KT 7SM -RA SCT021 OVC033 09/05 A3014 RMK AO2 P0007 T00930048
Loading
Personal Weather Stations






























Interactive Weather Map
Tropical Storm Tracking
New forecast layout! Learn more

10-Day Weather Forecast

Advertisements
Track Severe Weather on mobile